Coleman, Texas
Current Conditions -  °F | °C
As of 5:15 AM on Sunday 23 Nov 2014 (Local Time) from KCOM Reporting Station
Clear Clear  
Wind Chill: 50°   Ceiling: Unl
Heat Index: 50°   Visibility: 10mi
Dew Point: 48°   Wind: 3mph
Humidity: 94%   Direction: 210°SSW
Pressure: 29.62"   Gusts: NA
Location:  31.83°N, 99.43°W
Report Text: KCOM 231115Z AUTO 21003KT 10SM CLR 10/09 A2962 RMK AO2 T01000090
Loading
Personal Weather Stations






























Interactive Weather Map New forecast layout! Learn more

10-Day Weather Forecast

Advertisements
Track Severe Weather on mobile